createdAt,value
2018-07-26T00:00:24.210Z,18.60
2018-07-26T00:01:24.219Z,17.80
2018-07-26T00:02:24.210Z,19.70
2018-07-26T00:03:24.209Z,18.00
2018-07-26T00:04:24.214Z,18.40
2018-07-26T00:05:24.219Z,19.80
2018-07-26T00:06:24.219Z,17.00
2018-07-26T00:07:24.217Z,19.00
2018-07-26T00:08:24.219Z,20.10
2018-07-26T00:09:24.224Z,19.20
2018-07-26T00:10:24.225Z,18.50
2018-07-26T00:11:24.230Z,18.30
2018-07-26T00:12:24.232Z,20.60
2018-07-26T00:13:24.235Z,21.20
2018-07-26T00:14:24.236Z,20.50
2018-07-26T00:15:24.233Z,19.20
2018-07-26T00:16:24.237Z,19.90
2018-07-26T00:17:24.240Z,19.40
2018-07-26T00:18:24.239Z,20.00
2018-07-26T00:19:24.247Z,18.70
2018-07-26T00:20:24.249Z,19.50
2018-07-26T00:21:24.249Z,19.40
2018-07-26T00:22:24.396Z,19.60
2018-07-26T00:23:24.254Z,19.10
2018-07-26T00:24:24.257Z,19.80
2018-07-26T00:25:24.259Z,19.50
2018-07-26T00:26:24.258Z,19.40
2018-07-26T00:27:24.258Z,20.00
2018-07-26T00:28:24.258Z,20.80
2018-07-26T00:29:24.261Z,20.10
2018-07-26T00:30:24.263Z,20.40
2018-07-26T00:31:24.269Z,20.80
2018-07-26T00:32:24.271Z,20.40
2018-07-26T00:33:24.274Z,19.80
2018-07-26T00:34:24.276Z,21.90
2018-07-26T00:35:24.271Z,20.60
2018-07-26T00:36:24.273Z,21.80
2018-07-26T00:37:24.281Z,20.60
2018-07-26T00:38:24.283Z,21.00
2018-07-26T00:39:24.280Z,20.80
2018-07-26T00:40:24.281Z,19.50
2018-07-26T00:41:24.310Z,20.90
2018-07-26T00:42:24.283Z,20.40
2018-07-26T00:43:24.289Z,20.30
2018-07-26T00:44:24.291Z,22.50
2018-07-26T00:45:24.295Z,20.30
2018-07-26T00:46:24.294Z,20.80
2018-07-26T00:47:24.291Z,20.10
2018-07-26T00:48:24.294Z,19.70
2018-07-26T00:49:24.298Z,21.00
2018-07-26T00:50:24.296Z,20.50
2018-07-26T00:51:24.303Z,21.30
2018-07-26T00:52:24.306Z,20.50
2018-07-26T00:53:24.301Z,21.20
2018-07-26T00:54:24.305Z,19.70
2018-07-26T00:55:24.309Z,21.20
2018-07-26T00:56:24.312Z,20.70
2018-07-26T00:57:24.311Z,21.80
2018-07-26T00:58:24.312Z,21.60
2018-07-26T00:59:24.310Z,21.90
2018-07-26T01:00:24.314Z,20.30
2018-07-26T01:01:24.315Z,19.90
2018-07-26T01:02:24.315Z,20.00
2018-07-26T01:03:24.322Z,20.30
2018-07-26T01:04:24.327Z,20.10
2018-07-26T01:05:24.325Z,21.00
2018-07-26T01:06:24.324Z,20.20
2018-07-26T01:07:24.322Z,21.20
2018-07-26T01:08:24.324Z,21.40
2018-07-26T01:09:24.331Z,20.90
2018-07-26T01:10:24.331Z,21.60
2018-07-26T01:11:24.328Z,22.80
2018-07-26T01:12:24.329Z,21.50
2018-07-26T01:13:24.331Z,21.50
2018-07-26T01:14:24.333Z,21.20
2018-07-26T01:15:24.340Z,20.60
2018-07-26T01:16:24.340Z,21.90
2018-07-26T01:17:24.343Z,21.40
2018-07-26T01:18:24.343Z,20.80
2018-07-26T01:19:24.340Z,20.10
2018-07-26T01:20:24.342Z,21.10
2018-07-26T01:21:24.376Z,21.20
2018-07-26T01:22:24.343Z,21.80
2018-07-26T01:23:24.349Z,20.60
2018-07-26T01:24:24.350Z,22.60
2018-07-26T01:25:24.349Z,21.70
2018-07-26T01:26:24.348Z,21.30
2018-07-26T01:27:24.354Z,19.40
2018-07-26T01:28:24.356Z,19.70
2018-07-26T01:29:24.358Z,19.60
2018-07-26T01:30:24.364Z,21.10
2018-07-26T01:31:24.357Z,20.80
2018-07-26T01:32:24.357Z,21.90
2018-07-26T01:33:24.360Z,22.90
2018-07-26T01:34:24.362Z,22.30
2018-07-26T01:35:24.366Z,24.10
2018-07-26T01:36:24.368Z,21.70
2018-07-26T01:37:24.369Z,21.80
2018-07-26T01:38:24.369Z,22.30
2018-07-26T01:39:24.366Z,20.50
2018-07-26T01:40:24.369Z,21.30
2018-07-26T01:41:24.374Z,21.60
2018-07-26T01:42:24.375Z,21.40
2018-07-26T01:43:24.372Z,22.80
2018-07-26T01:44:24.374Z,21.40
2018-07-26T01:45:24.375Z,20.60
2018-07-26T01:46:24.375Z,21.80
2018-07-26T01:47:24.383Z,20.50
2018-07-26T01:48:24.383Z,21.90
2018-07-26T01:49:24.386Z,21.50
2018-07-26T01:50:24.386Z,20.60
2018-07-26T01:51:24.382Z,20.90
2018-07-26T01:52:24.386Z,22.20
2018-07-26T01:53:24.386Z,20.60
2018-07-26T01:54:24.385Z,20.00
2018-07-26T01:55:24.391Z,20.70
2018-07-26T01:56:24.394Z,20.30
2018-07-26T01:57:24.390Z,21.70
2018-07-26T01:58:24.390Z,21.40
2018-07-26T01:59:24.397Z,21.10
2018-07-26T02:00:24.400Z,21.70
2018-07-26T02:01:24.403Z,21.40
2018-07-26T02:02:24.403Z,21.30
2018-07-26T02:03:24.398Z,21.10
2018-07-26T02:04:24.399Z,21.30
2018-07-26T02:05:24.400Z,21.40
2018-07-26T02:06:24.400Z,21.50
2018-07-26T02:07:24.405Z,21.80
2018-07-26T02:08:24.407Z,21.60
2018-07-26T02:09:24.410Z,21.00
2018-07-26T02:10:24.410Z,21.90
2018-07-26T02:11:24.407Z,22.70
2018-07-26T02:12:24.409Z,21.10
2018-07-26T02:13:24.414Z,21.40
2018-07-26T02:14:24.413Z,20.30
2018-07-26T02:15:24.410Z,21.50
2018-07-26T02:16:24.413Z,21.20
2018-07-26T02:17:24.414Z,22.40
2018-07-26T02:18:24.416Z,20.60
2018-07-26T02:19:24.419Z,20.90
2018-07-26T02:20:24.421Z,20.80
2018-07-26T02:21:24.422Z,21.20
2018-07-26T02:22:24.422Z,20.70
2018-07-26T02:23:24.419Z,20.00
2018-07-26T02:24:24.424Z,20.70
2018-07-26T02:25:24.423Z,20.70
2018-07-26T02:26:24.422Z,20.30
2018-07-26T02:27:24.430Z,20.30
2018-07-26T02:28:24.430Z,20.90
2018-07-26T02:29:24.425Z,20.90
2018-07-26T02:30:24.427Z,20.30
2018-07-26T02:31:24.433Z,20.00
2018-07-26T02:32:24.434Z,20.40
2018-07-26T02:33:24.434Z,20.40
2018-07-26T02:34:24.435Z,21.50
2018-07-26T02:35:24.437Z,21.50
2018-07-26T02:36:24.433Z,21.90
2018-07-26T02:37:24.434Z,21.20
2018-07-26T02:38:24.433Z,21.40
2018-07-26T02:39:24.446Z,22.50
2018-07-26T02:40:24.440Z,22.10
2018-07-26T02:41:24.443Z,21.90
2018-07-26T02:42:24.442Z,23.30
2018-07-26T02:43:24.440Z,21.20
2018-07-26T02:44:24.439Z,22.30
2018-07-26T02:45:24.446Z,21.80
2018-07-26T02:46:24.461Z,21.40
2018-07-26T02:47:24.441Z,21.40
2018-07-26T02:48:24.444Z,21.20
2018-07-26T02:49:24.447Z,23.60
2018-07-26T02:50:24.447Z,22.90
2018-07-26T02:51:24.450Z,24.30
2018-07-26T02:52:24.450Z,20.70
2018-07-26T02:53:24.451Z,22.10
2018-07-26T02:54:24.451Z,20.70
2018-07-26T02:55:24.448Z,22.40
2018-07-26T02:56:24.449Z,22.20
2018-07-26T02:57:24.453Z,22.60
2018-07-26T02:58:24.449Z,22.10
2018-07-26T02:59:24.459Z,22.80
2018-07-26T03:00:24.458Z,23.30
2018-07-26T03:01:24.453Z,22.40
2018-07-26T03:02:24.453Z,21.10
2018-07-26T03:03:24.460Z,23.10
2018-07-26T03:04:24.462Z,22.50
2018-07-26T03:05:24.462Z,21.70
2018-07-26T03:06:24.469Z,22.50
2018-07-26T03:07:24.458Z,22.90
2018-07-26T03:08:24.458Z,21.90
2018-07-26T03:09:24.460Z,22.30
2018-07-26T03:10:24.472Z,22.40
2018-07-26T03:11:24.470Z,22.40
2018-07-26T03:12:24.467Z,23.00
2018-07-26T03:13:24.468Z,21.70
2018-07-26T03:14:24.466Z,22.40
2018-07-26T03:15:24.463Z,21.20
2018-07-26T03:16:24.465Z,21.60
2018-07-26T03:17:24.470Z,21.50
2018-07-26T03:18:24.470Z,22.40
2018-07-26T03:19:24.466Z,21.80
2018-07-26T03:20:24.468Z,21.80
2018-07-26T03:21:24.472Z,21.60
2018-07-26T03:22:24.469Z,22.70
2018-07-26T03:23:24.474Z,22.20
2018-07-26T03:24:24.475Z,22.60
2018-07-26T03:25:24.477Z,23.70
2018-07-26T03:26:24.476Z,23.40
2018-07-26T03:27:24.473Z,22.60
2018-07-26T03:28:24.473Z,22.00
2018-07-26T03:29:24.473Z,24.00
2018-07-26T03:30:24.473Z,22.80
2018-07-26T03:31:24.478Z,21.80
2018-07-26T03:32:24.478Z,21.40
2018-07-26T03:33:24.475Z,23.50
2018-07-26T03:34:24.479Z,23.20
2018-07-26T03:35:24.482Z,23.50
2018-07-26T03:36:24.480Z,23.60
2018-07-26T03:37:24.483Z,23.60
2018-07-26T03:38:24.483Z,23.00
2018-07-26T03:39:24.479Z,23.80
2018-07-26T03:40:24.479Z,22.60
2018-07-26T03:41:24.481Z,22.80
2018-07-26T03:42:24.484Z,23.50
2018-07-26T03:43:24.487Z,22.90
2018-07-26T03:44:24.490Z,22.90
2018-07-26T03:45:24.486Z,23.60
2018-07-26T03:46:24.487Z,24.10
2018-07-26T03:47:24.485Z,24.90
2018-07-26T03:48:24.483Z,24.10
2018-07-26T03:49:24.489Z,23.70
2018-07-26T03:50:24.489Z,21.50
2018-07-26T03:51:24.534Z,23.30
2018-07-26T03:52:24.486Z,24.00
2018-07-26T03:53:24.486Z,25.10
2018-07-26T03:54:24.487Z,23.30
2018-07-26T03:55:24.492Z,23.40
2018-07-26T03:56:24.492Z,23.60
2018-07-26T03:57:24.492Z,22.30
2018-07-26T03:58:24.496Z,23.00
2018-07-26T03:59:24.488Z,23.20
2018-07-26T04:00:24.490Z,23.20
2018-07-26T04:01:24.489Z,24.70
2018-07-26T04:02:24.489Z,23.90
2018-07-26T04:03:24.538Z,23.00
2018-07-26T04:04:24.495Z,23.30
2018-07-26T04:05:24.496Z,22.40
2018-07-26T04:06:24.491Z,22.60
2018-07-26T04:07:24.497Z,23.00
2018-07-26T04:08:24.496Z,22.50
2018-07-26T04:09:24.498Z,23.30
2018-07-26T04:10:24.499Z,23.00
2018-07-26T04:11:24.495Z,21.60
2018-07-26T04:12:24.499Z,22.50
2018-07-26T04:13:24.503Z,22.30
2018-07-26T04:14:24.500Z,22.80
2018-07-26T04:15:24.496Z,22.70
2018-07-26T04:16:24.497Z,22.80
2018-07-26T04:17:24.497Z,22.30
2018-07-26T04:18:24.498Z,23.00
2018-07-26T04:19:24.504Z,22.40
2018-07-26T04:20:24.505Z,23.50
2018-07-26T04:21:24.500Z,23.00
2018-07-26T04:22:24.500Z,24.80
2018-07-26T04:23:24.506Z,23.60
2018-07-26T04:24:24.507Z,23.20
2018-07-26T04:25:24.507Z,23.40
2018-07-26T04:26:24.509Z,22.90
2018-07-26T04:27:24.504Z,23.30
2018-07-26T04:28:24.504Z,22.60
2018-07-26T04:29:24.504Z,23.20
2018-07-26T04:30:24.504Z,21.80
2018-07-26T04:31:24.509Z,22.50
2018-07-26T04:32:24.513Z,24.00
2018-07-26T04:33:24.511Z,24.80
2018-07-26T04:34:24.512Z,23.40
2018-07-26T04:35:24.508Z,23.70
2018-07-26T04:36:24.508Z,23.00
2018-07-26T04:37:24.515Z,25.30
2018-07-26T04:38:24.514Z,26.40
2018-07-26T04:39:24.511Z,25.20
2018-07-26T04:40:24.512Z,24.60
2018-07-26T04:41:24.511Z,22.90
2018-07-26T04:42:24.512Z,22.90
2018-07-26T04:43:24.516Z,22.70
2018-07-26T04:44:24.519Z,22.00
2018-07-26T04:45:24.519Z,23.80
2018-07-26T04:46:24.519Z,21.80
2018-07-26T04:47:24.516Z,23.70
2018-07-26T04:48:24.517Z,22.70
2018-07-26T04:49:24.518Z,23.30
2018-07-26T04:50:24.518Z,22.00
2018-07-26T04:51:24.525Z,23.50
2018-07-26T04:52:24.526Z,24.30
2018-07-26T04:53:24.522Z,23.00
2018-07-26T04:54:24.522Z,22.20
2018-07-26T04:55:24.533Z,22.40
2018-07-26T04:56:24.531Z,23.10
2018-07-26T04:57:24.531Z,21.80
2018-07-26T04:58:24.531Z,21.70
2018-07-26T04:59:24.530Z,22.60
2018-07-26T05:00:24.531Z,22.00
2018-07-26T05:01:24.533Z,21.80
2018-07-26T05:02:24.534Z,21.00
2018-07-26T05:03:24.540Z,20.50
2018-07-26T05:04:24.544Z,20.80
2018-07-26T05:05:24.563Z,23.10
2018-07-26T05:06:24.547Z,23.30
2018-07-26T05:07:24.546Z,22.20
2018-07-26T05:08:24.548Z,25.40
2018-07-26T05:09:24.556Z,24.30
2018-07-26T05:10:24.557Z,23.80
2018-07-26T05:11:24.556Z,23.20
2018-07-26T05:12:24.558Z,24.30
2018-07-26T05:13:24.563Z,26.00
2018-07-26T05:14:24.566Z,24.50
2018-07-26T05:15:24.580Z,23.90
2018-07-26T05:16:24.575Z,24.50
2018-07-26T05:17:24.581Z,24.40
2018-07-26T05:18:24.594Z,24.50
2018-07-26T05:19:24.582Z,24.60
2018-07-26T05:20:24.586Z,23.60
2018-07-26T05:21:24.593Z,23.60
2018-07-26T05:22:24.593Z,23.50
2018-07-26T05:23:24.602Z,24.00
2018-07-26T05:24:24.608Z,23.40
2018-07-26T05:25:24.614Z,22.90
2018-07-26T05:26:24.612Z,23.80
2018-07-26T05:27:24.621Z,22.00
2018-07-26T05:28:24.626Z,23.20
2018-07-26T05:29:24.634Z,22.90
2018-07-26T05:30:24.650Z,23.50
2018-07-26T05:31:24.635Z,26.90
2018-07-26T05:32:24.641Z,29.10
2018-07-26T05:33:24.647Z,29.00
2018-07-26T05:34:24.652Z,28.40
2018-07-26T05:35:24.663Z,31.50
2018-07-26T05:36:24.667Z,76.10
2018-07-26T05:37:24.686Z,62.30
2018-07-26T05:38:24.678Z,23.90
2018-07-26T05:39:24.680Z,19.60
2018-07-26T05:40:24.685Z,18.60
2018-07-26T05:41:24.695Z,18.30
2018-07-26T05:42:24.700Z,18.50
2018-07-26T05:43:24.702Z,20.20
2018-07-26T05:44:24.708Z,18.70
2018-07-26T05:45:24.714Z,18.60
2018-07-26T05:46:24.719Z,19.30
2018-07-26T05:47:24.733Z,18.10
2018-07-26T05:48:24.737Z,20.60
2018-07-26T05:49:24.743Z,23.40
2018-07-26T05:50:24.749Z,18.40
2018-07-26T05:51:24.750Z,20.70
2018-07-26T05:52:24.757Z,17.20
2018-07-26T05:53:24.912Z,22.70
2018-07-26T05:54:24.775Z,22.30
2018-07-26T05:55:24.781Z,19.70
2018-07-26T05:56:24.788Z,22.00
2018-07-26T05:57:24.789Z,19.80
2018-07-26T05:58:24.795Z,19.90
2018-07-26T05:59:24.807Z,21.40
2018-07-26T06:00:24.813Z,19.10
2018-07-26T06:01:24.821Z,18.80
2018-07-26T06:02:24.829Z,19.60
2018-07-26T06:03:24.831Z,17.50
2018-07-26T06:04:24.834Z,19.80
2018-07-26T06:05:24.842Z,19.10
2018-07-26T06:06:24.847Z,24.60
2018-07-26T06:07:24.858Z,22.90
2018-07-26T06:08:24.864Z,21.80
2018-07-26T06:09:24.870Z,23.10
2018-07-26T06:10:24.878Z,23.00
2018-07-26T06:11:24.877Z,18.90
2018-07-26T06:12:24.884Z,21.60
2018-07-26T06:13:24.894Z,20.10
2018-07-26T06:14:24.900Z,19.00
2018-07-26T06:15:24.902Z,20.80
2018-07-26T06:16:24.911Z,22.20
2018-07-26T06:17:24.917Z,19.90
2018-07-26T06:18:24.938Z,20.60
2018-07-26T06:19:24.934Z,24.40
2018-07-26T06:20:24.941Z,26.30
2018-07-26T06:21:24.945Z,22.60
2018-07-26T06:22:24.955Z,21.10
2018-07-26T06:23:24.953Z,20.40
2018-07-26T06:24:24.959Z,24.60
2018-07-26T06:25:24.967Z,19.00
2018-07-26T06:26:24.973Z,17.90
2018-07-26T06:27:24.989Z,19.70
2018-07-26T06:28:24.995Z,22.50
2018-07-26T06:29:24.994Z,18.50
2018-07-26T06:30:25.000Z,17.70
2018-07-26T06:31:25.016Z,20.70
2018-07-26T06:32:25.021Z,21.90
2018-07-26T06:33:25.101Z,18.20
2018-07-26T06:34:25.036Z,19.80
2018-07-26T06:35:25.039Z,18.30
2018-07-26T06:36:25.045Z,19.00
2018-07-26T06:37:25.054Z,21.60
2018-07-26T06:38:25.061Z,22.20
2018-07-26T06:39:25.137Z,21.20
2018-07-26T06:40:25.080Z,19.00
2018-07-26T06:41:25.089Z,18.00
2018-07-26T06:42:25.096Z,19.80
2018-07-26T06:43:25.098Z,18.90
2018-07-26T06:44:25.106Z,20.30
2018-07-26T06:45:25.119Z,17.80
2018-07-26T06:46:25.127Z,19.80
2018-07-26T06:47:25.129Z,19.10
2018-07-26T06:48:25.136Z,19.70
2018-07-26T06:49:25.144Z,21.20
2018-07-26T06:50:25.151Z,21.30
2018-07-26T06:51:25.164Z,20.40
2018-07-26T06:52:25.172Z,19.60
2018-07-26T06:53:25.180Z,22.70
2018-07-26T06:54:25.186Z,18.90
2018-07-26T06:55:25.190Z,20.90
2018-07-26T06:56:25.197Z,21.00
2018-07-26T06:57:25.206Z,23.30
2018-07-26T06:58:25.213Z,20.80
2018-07-26T06:59:25.225Z,21.50
2018-07-26T07:00:25.232Z,20.70
2018-07-26T07:01:25.236Z,22.70
2018-07-26T07:02:25.241Z,20.20
2018-07-26T07:03:25.255Z,23.10
2018-07-26T07:04:25.262Z,20.80
2018-07-26T07:05:25.269Z,20.90
2018-07-26T07:06:25.275Z,19.90
2018-07-26T07:07:25.278Z,23.30
2018-07-26T07:08:25.289Z,22.30
2018-07-26T07:09:25.295Z,19.20
2018-07-26T07:10:25.303Z,26.70
2018-07-26T07:11:25.313Z,20.90
2018-07-26T07:12:25.319Z,21.10
2018-07-26T07:13:25.328Z,21.10
2018-07-26T07:14:25.335Z,19.30
2018-07-26T07:15:25.337Z,21.30
2018-07-26T07:16:25.346Z,19.50
2018-07-26T07:17:25.357Z,17.90
2018-07-26T07:18:25.365Z,23.10
2018-07-26T07:19:25.371Z,18.20
2018-07-26T07:20:25.420Z,22.70
2018-07-26T07:21:25.384Z,15.80
2018-07-26T07:22:25.392Z,16.10
2018-07-26T07:23:25.405Z,16.10
2018-07-26T07:24:25.415Z,13.40
2018-07-26T07:25:25.423Z,12.90
2018-07-26T07:26:25.432Z,11.40
2018-07-26T07:27:25.435Z,15.40
2018-07-26T07:28:25.450Z,11.80
2018-07-26T07:29:25.476Z,19.20
2018-07-26T07:30:25.465Z,12.30
2018-07-26T07:31:25.478Z,15.50
2018-07-26T07:32:25.489Z,10.30
2018-07-26T07:33:25.494Z,13.40
2018-07-26T07:34:25.506Z,15.30
2018-07-26T07:35:25.535Z,15.30
2018-07-26T07:36:25.535Z,14.90
2018-07-26T07:37:25.540Z,13.40
2018-07-26T07:38:25.550Z,13.50
2018-07-26T07:39:25.555Z,11.80
2018-07-26T07:40:25.565Z,11.80
2018-07-26T07:41:25.595Z,11.80
2018-07-26T07:42:25.587Z,13.10
2018-07-26T07:43:25.603Z,10.90
2018-07-26T07:44:25.614Z,10.30
2018-07-26T07:45:25.625Z,15.80
2018-07-26T07:46:25.636Z,13.00
2018-07-26T07:47:25.713Z,12.90
2018-07-26T07:48:25.655Z,11.10
2018-07-26T07:49:25.672Z,12.80
2018-07-26T07:50:25.682Z,13.50
2018-07-26T07:51:25.690Z,8.90
2018-07-26T07:52:25.702Z,8.70
2018-07-26T07:53:25.717Z,8.40
2018-07-26T07:54:25.728Z,7.30
2018-07-26T07:55:25.747Z,8.20
2018-07-26T07:56:25.761Z,11.10
2018-07-26T07:57:25.775Z,7.90
2018-07-26T07:58:25.787Z,6.20
2018-07-26T07:59:25.876Z,6.40
2018-07-26T08:00:25.813Z,7.40
2018-07-26T08:01:25.828Z,5.40
2018-07-26T08:02:25.844Z,5.20
2018-07-26T08:03:25.864Z,6.10
2018-07-26T08:04:25.883Z,7.80
2018-07-26T08:05:25.956Z,6.90
2018-07-26T08:06:25.908Z,5.00
2018-07-26T08:07:25.929Z,5.10
2018-07-26T08:08:25.948Z,5.00
2018-07-26T08:09:25.965Z,5.10
2018-07-26T08:10:25.981Z,6.20
2018-07-26T08:11:25.997Z,4.80
2018-07-26T08:12:26.012Z,4.80
2018-07-26T08:13:26.031Z,5.10
2018-07-26T08:14:26.047Z,4.60
2018-07-26T08:15:26.071Z,4.50
2018-07-26T08:16:26.088Z,4.10
2018-07-26T08:17:26.107Z,4.20
2018-07-26T08:18:26.126Z,4.30
2018-07-26T08:19:26.139Z,4.20
2018-07-26T08:20:26.159Z,4.60
2018-07-26T08:21:26.249Z,8.60
2018-07-26T08:22:26.199Z,4.70
2018-07-26T08:23:26.216Z,4.70
2018-07-26T08:24:26.237Z,4.70
2018-07-26T08:25:26.254Z,4.70
2018-07-26T08:26:26.272Z,4.40
2018-07-26T08:27:26.295Z,4.30
2018-07-26T08:28:26.319Z,4.60
2018-07-26T08:29:26.405Z,4.70
2018-07-26T08:30:26.353Z,4.30
2018-07-26T08:31:26.371Z,4.60
2018-07-26T08:32:26.391Z,4.30
2018-07-26T08:33:26.408Z,7.80
2018-07-26T08:34:26.426Z,4.70
2018-07-26T08:35:26.451Z,4.80
2018-07-26T08:36:26.471Z,4.40
2018-07-26T08:37:26.487Z,4.50
2018-07-26T08:38:26.507Z,4.40
2018-07-26T08:39:26.540Z,4.20
2018-07-26T08:40:26.554Z,4.50
2018-07-26T08:41:26.574Z,4.30
2018-07-26T08:42:26.594Z,4.60
2018-07-26T08:43:26.610Z,4.40
2018-07-26T08:44:26.637Z,4.20
2018-07-26T08:45:26.653Z,5.30
2018-07-26T08:46:26.672Z,4.70
2018-07-26T08:47:26.698Z,4.70
2018-07-26T08:48:26.721Z,4.30
2018-07-26T08:49:26.741Z,4.10
2018-07-26T08:50:26.760Z,4.50
2018-07-26T08:51:26.779Z,4.30
2018-07-26T08:52:26.799Z,4.10
2018-07-26T08:53:26.826Z,4.20
2018-07-26T08:54:26.850Z,4.40
2018-07-26T08:55:26.863Z,4.00
2018-07-26T08:56:26.887Z,3.90
2018-07-26T08:57:26.912Z,4.20
2018-07-26T08:58:26.928Z,5.20
2018-07-26T08:59:26.955Z,4.30
2018-07-26T09:00:26.976Z,3.30
2018-07-26T09:01:27.004Z,3.90
2018-07-26T09:02:27.020Z,4.20
2018-07-26T09:03:27.036Z,4.20
2018-07-26T09:04:27.062Z,4.30
2018-07-26T09:05:27.080Z,4.40
2018-07-26T09:06:27.100Z,4.80
2018-07-26T09:07:27.127Z,4.50
2018-07-26T09:08:27.148Z,4.30
2018-07-26T09:09:27.166Z,4.20
2018-07-26T09:10:27.191Z,4.50
2018-07-26T09:11:27.250Z,4.10
2018-07-26T09:12:27.234Z,4.20
2018-07-26T09:13:27.299Z,4.10
2018-07-26T09:14:27.278Z,4.40
2018-07-26T09:15:27.295Z,4.10
2018-07-26T09:16:27.316Z,4.00
2018-07-26T09:17:27.339Z,4.20
2018-07-26T09:18:27.358Z,5.50
2018-07-26T09:19:27.387Z,4.40
2018-07-26T09:20:27.406Z,4.30
2018-07-26T09:21:27.428Z,4.50
2018-07-26T09:22:27.448Z,4.20
2018-07-26T09:23:27.467Z,4.30
2018-07-26T09:24:27.508Z,4.30
2018-07-26T09:25:27.519Z,4.50
2018-07-26T09:26:27.534Z,4.30
2018-07-26T09:27:27.551Z,4.60
2018-07-26T09:28:27.574Z,4.10
2018-07-26T09:29:27.595Z,4.40
2018-07-26T09:30:27.618Z,4.30
2018-07-26T09:31:27.644Z,4.50
2018-07-26T09:32:27.666Z,4.30
2018-07-26T09:33:27.687Z,4.30
2018-07-26T09:34:27.707Z,4.40
2018-07-26T09:35:27.762Z,4.30
2018-07-26T09:36:27.748Z,4.80
2018-07-26T09:37:27.770Z,6.00
2018-07-26T09:38:27.792Z,4.70
2018-07-26T09:39:27.819Z,4.20
2018-07-26T09:40:27.845Z,4.50
2018-07-26T09:41:27.859Z,5.10
2018-07-26T09:42:27.883Z,4.40
2018-07-26T09:43:27.908Z,4.50
2018-07-26T09:44:27.929Z,5.60
2018-07-26T09:45:27.952Z,7.10
2018-07-26T09:46:27.974Z,5.80
2018-07-26T09:47:28.063Z,4.40
2018-07-26T09:48:28.026Z,4.30
2018-07-26T09:49:28.073Z,4.20
2018-07-26T09:50:28.062Z,4.10
2018-07-26T09:51:28.087Z,4.40
2018-07-26T09:52:28.111Z,6.20
2018-07-26T09:53:28.134Z,4.50
2018-07-26T09:54:28.154Z,4.50
2018-07-26T09:55:28.172Z,4.60
2018-07-26T09:56:28.196Z,4.80
2018-07-26T09:57:28.223Z,5.10
2018-07-26T09:58:28.243Z,4.60
2018-07-26T09:59:28.261Z,4.10
2018-07-26T10:00:28.405Z,4.40
2018-07-26T10:01:28.305Z,4.50
2018-07-26T10:02:28.334Z,4.40
2018-07-26T10:03:28.354Z,4.50
2018-07-26T10:04:28.376Z,4.90
2018-07-26T10:05:28.399Z,4.80
2018-07-26T10:06:28.420Z,4.80
2018-07-26T10:07:28.441Z,4.90
2018-07-26T10:08:28.463Z,5.40
2018-07-26T10:09:28.484Z,4.80
2018-07-26T10:10:28.507Z,4.80
2018-07-26T10:11:28.533Z,4.90
2018-07-26T10:12:28.556Z,3.60
2018-07-26T10:13:28.573Z,3.80
2018-07-26T10:14:28.595Z,3.50
2018-07-26T10:15:28.623Z,3.80
2018-07-26T10:16:28.645Z,4.10
2018-07-26T10:17:28.667Z,3.50
2018-07-26T10:18:28.688Z,4.50
2018-07-26T10:19:28.706Z,4.00
2018-07-26T10:20:28.733Z,3.80
2018-07-26T10:21:28.751Z,3.70
2018-07-26T10:22:28.774Z,6.40
2018-07-26T10:23:28.802Z,3.90
2018-07-26T10:24:28.823Z,3.90
2018-07-26T10:25:28.847Z,4.20
2018-07-26T10:26:28.870Z,3.60
2018-07-26T10:27:28.887Z,3.50
2018-07-26T10:28:28.912Z,4.10
2018-07-26T10:29:28.937Z,3.80
2018-07-26T10:30:28.960Z,4.30
2018-07-26T10:31:28.976Z,6.80
2018-07-26T10:32:29.000Z,4.60
2018-07-26T10:33:29.022Z,4.80
2018-07-26T10:34:29.045Z,10.30
2018-07-26T10:35:29.072Z,4.90
2018-07-26T10:36:29.095Z,4.70
2018-07-26T10:37:29.118Z,4.90
2018-07-26T10:38:29.139Z,4.30
2018-07-26T10:39:29.161Z,4.50
2018-07-26T10:40:29.181Z,6.70
2018-07-26T10:41:29.203Z,5.00
2018-07-26T10:42:29.224Z,3.60
2018-07-26T10:43:29.251Z,4.40
2018-07-26T10:44:29.278Z,6.60
2018-07-26T10:45:29.294Z,5.10
2018-07-26T10:46:29.333Z,5.80
2018-07-26T10:47:29.342Z,5.10
2018-07-26T10:48:29.365Z,5.90
2018-07-26T10:49:29.388Z,4.80
2018-07-26T10:50:29.414Z,4.80
2018-07-26T10:51:29.430Z,5.00
2018-07-26T10:52:29.454Z,4.80
2018-07-26T10:53:29.475Z,5.10
2018-07-26T10:54:29.496Z,4.70
2018-07-26T10:55:29.524Z,4.50
2018-07-26T10:56:29.548Z,5.30
2018-07-26T10:57:29.568Z,4.70
2018-07-26T10:58:29.589Z,5.30
2018-07-26T10:59:29.607Z,9.60
2018-07-26T11:00:29.636Z,5.50
2018-07-26T11:01:29.659Z,6.00
2018-07-26T11:02:29.677Z,6.30
2018-07-26T11:03:29.698Z,6.40
2018-07-26T11:04:29.717Z,6.80
2018-07-26T11:05:29.740Z,6.10
2018-07-26T11:06:29.761Z,6.30
2018-07-26T11:07:29.787Z,6.40
2018-07-26T11:08:29.808Z,6.30
2018-07-26T11:09:29.845Z,10.80
2018-07-26T11:10:29.851Z,5.70
2018-07-26T11:11:29.869Z,6.10
2018-07-26T11:12:29.890Z,6.50
2018-07-26T11:13:29.912Z,6.50
2018-07-26T11:14:29.932Z,5.80
2018-07-26T11:15:29.959Z,5.60
2018-07-26T11:16:29.995Z,6.30
2018-07-26T11:17:29.997Z,5.80
2018-07-26T11:18:30.019Z,10.60
2018-07-26T11:19:30.048Z,6.50
2018-07-26T11:20:30.066Z,7.10
2018-07-26T11:21:30.088Z,6.10
2018-07-26T11:22:30.108Z,10.30
2018-07-26T11:23:30.123Z,7.50
2018-07-26T11:24:30.145Z,6.60
2018-07-26T11:25:30.199Z,6.50
2018-07-26T11:26:30.183Z,7.30
2018-07-26T11:27:30.209Z,6.80
2018-07-26T11:28:30.228Z,10.30
2018-07-26T11:29:30.275Z,7.00
2018-07-26T11:30:30.268Z,7.10
2018-07-26T11:31:30.280Z,7.40
2018-07-26T11:32:30.315Z,8.30
2018-07-26T11:33:30.322Z,7.50
2018-07-26T11:34:30.338Z,7.90
2018-07-26T11:35:30.356Z,8.80
2018-07-26T11:36:30.371Z,7.40
2018-07-26T11:37:30.388Z,7.30
2018-07-26T11:38:30.406Z,7.80
2018-07-26T11:39:30.426Z,8.60
2018-07-26T11:40:30.442Z,8.50
2018-07-26T11:41:30.466Z,8.80
2018-07-26T11:42:30.473Z,8.80
2018-07-26T11:43:30.485Z,9.20
2018-07-26T11:44:30.499Z,9.00
2018-07-26T11:45:30.515Z,8.90
2018-07-26T11:46:30.528Z,9.40
2018-07-26T11:47:30.549Z,9.60
2018-07-26T11:48:30.563Z,9.30
2018-07-26T11:49:30.573Z,9.50
2018-07-26T11:50:30.585Z,10.00
2018-07-26T11:51:30.604Z,9.60
2018-07-26T11:52:30.619Z,9.20
2018-07-26T11:53:30.632Z,9.90
2018-07-26T11:54:30.644Z,9.60
2018-07-26T11:55:30.654Z,10.90
2018-07-26T11:56:30.666Z,9.80
2018-07-26T11:57:30.679Z,9.90
2018-07-26T11:58:30.690Z,10.20
2018-07-26T11:59:30.707Z,9.70
2018-07-26T12:00:30.719Z,9.90
2018-07-26T12:01:30.773Z,10.10
2018-07-26T12:02:30.818Z,10.00
2018-07-26T12:03:30.750Z,9.80
2018-07-26T12:04:30.763Z,10.00
2018-07-26T12:05:30.779Z,9.70
2018-07-26T12:06:30.789Z,9.90
2018-07-26T12:07:30.800Z,10.60
2018-07-26T12:08:30.809Z,10.20
2018-07-26T12:09:30.819Z,10.20
2018-07-26T12:10:30.831Z,11.80
2018-07-26T12:11:30.845Z,10.40
2018-07-26T12:12:30.855Z,10.40
2018-07-26T12:13:30.867Z,10.10
2018-07-26T12:14:30.877Z,11.00
2018-07-26T12:15:30.884Z,10.50
2018-07-26T12:16:30.894Z,9.50
2018-07-26T12:17:30.906Z,12.00
2018-07-26T12:18:30.917Z,10.10
2018-07-26T12:19:30.971Z,10.70
2018-07-26T12:20:30.946Z,9.60
2018-07-26T12:21:30.949Z,10.10
2018-07-26T12:22:30.959Z,10.80
2018-07-26T12:23:30.979Z,9.70
2018-07-26T12:24:30.987Z,10.10
2018-07-26T12:25:30.996Z,9.50
2018-07-26T12:26:31.008Z,10.00
2018-07-26T12:27:31.013Z,10.10
2018-07-26T12:28:31.025Z,9.50
2018-07-26T12:29:31.035Z,9.20
2018-07-26T12:30:31.047Z,9.00
2018-07-26T12:31:31.061Z,9.00
2018-07-26T12:32:31.074Z,9.20
2018-07-26T12:33:31.086Z,9.80
2018-07-26T12:34:31.096Z,9.60
2018-07-26T12:35:31.104Z,9.20
2018-07-26T12:36:31.114Z,9.40
2018-07-26T12:37:31.129Z,9.80
2018-07-26T12:38:31.141Z,9.80
2018-07-26T12:39:31.146Z,10.00
2018-07-26T12:40:31.158Z,10.20
2018-07-26T12:41:31.237Z,9.50
2018-07-26T12:42:31.179Z,9.90
2018-07-26T12:43:31.317Z,10.00
2018-07-26T12:44:31.206Z,9.80
2018-07-26T12:45:31.214Z,10.60
2018-07-26T12:46:31.225Z,11.80
2018-07-26T12:47:31.272Z,9.60
2018-07-26T12:48:31.253Z,9.30
2018-07-26T12:49:31.286Z,10.10
2018-07-26T12:50:31.274Z,10.00
2018-07-26T12:51:31.283Z,12.90
2018-07-26T12:52:31.291Z,9.80
2018-07-26T12:53:31.306Z,9.80
2018-07-26T12:54:31.317Z,9.80
2018-07-26T12:55:31.377Z,9.80
2018-07-26T12:56:31.335Z,9.50
2018-07-26T12:57:31.347Z,10.30
2018-07-26T12:58:31.356Z,10.10
2018-07-26T12:59:31.370Z,9.10
2018-07-26T13:00:31.381Z,9.60
2018-07-26T13:01:31.402Z,9.50